Time;durP1;ratioP1;P1;durP2;ratioP2;P2;SDS_P1;SDS_P2;PMS_P1;PMS_P2;Temp;Humidity;BMP_temperature;BMP_pressure;BME280_temperature;BME280_humidity;BME280_pressure;Samples;Min_cycle;Max_cycle;Signal;HPM_P1;HPM_P2
2023/09/26 00:01:46;;;;;;;4.10;3.72;;;10.30;99.90;;;;;;5009469;28;20517;-83
2023/09/26 00:04:11;;;;;;;3.63;2.92;;;10.30;99.90;;;;;;5010432;28;20018;-83
2023/09/26 00:06:37;;;;;;;2.90;2.70;;;10.20;99.90;;;;;;5006980;28;20647;-83
2023/09/26 00:09:05;;;;;;;3.60;3.30;;;10.20;99.90;;;;;;5015154;28;20057;-83
2023/09/26 00:11:33;;;;;;;3.63;3.25;;;10.20;99.90;;;;;;5001826;28;20015;-83
2023/09/26 00:13:59;;;;;;;3.95;3.55;;;10.20;99.90;;;;;;5011731;28;20033;-82
2023/09/26 00:16:24;;;;;;;4.00;3.35;;;10.20;99.90;;;;;;5001544;28;20088;-83
2023/09/26 00:18:50;;;;;;;5.18;3.90;;;10.10;99.90;;;;;;5007187;28;20042;-83
2023/09/26 00:21:15;;;;;;;4.88;3.63;;;10.10;99.90;;;;;;5012040;28;20019;-82
2023/09/26 00:23:41;;;;;;;4.55;4.15;;;10.10;99.90;;;;;;5010683;28;20026;-83
2023/09/26 00:26:07;;;;;;;4.13;3.72;;;10.10;99.90;;;;;;5013023;28;20088;-83
2023/09/26 00:28:33;;;;;;;4.18;3.78;;;10.10;99.90;;;;;;5019874;28;20018;-82
2023/09/26 00:31:03;;;;;;;4.55;4.15;;;10.00;99.90;;;;;;5007194;28;20044;-83
2023/09/26 00:33:29;;;;;;;5.10;4.50;;;10.00;99.90;;;;;;5001823;28;20024;-83
2023/09/26 00:35:55;;;;;;;9.30;3.83;;;10.00;99.90;;;;;;5000653;28;20021;-83
2023/09/26 00:38:21;;;;;;;3.75;3.35;;;9.90;99.90;;;;;;5017734;28;20030;-84
2023/09/26 00:40:46;;;;;;;4.25;3.85;;;9.90;99.90;;;;;;5012758;28;20080;-83
2023/09/26 00:43:22;;;;;;;5.03;3.90;;;9.90;99.90;;;;;;5011755;28;20018;-82
2023/09/26 00:45:53;;;;;;;4.50;3.83;;;9.90;99.90;;;;;;4999310;28;20035;-83
2023/09/26 00:48:21;;;;;;;4.82;4.18;;;9.80;99.90;;;;;;5006529;28;20515;-83
2023/09/26 00:50:47;;;;;;;4.35;3.60;;;9.80;99.90;;;;;;5016593;28;20600;-82
2023/09/26 00:53:13;;;;;;;5.22;4.53;;;9.80;99.90;;;;;;5007130;28;20036;-83
2023/09/26 00:55:38;;;;;;;5.80;4.28;;;9.80;99.90;;;;;;5013358;28;20064;-83
2023/09/26 00:58:04;;;;;;;4.72;3.95;;;9.80;99.90;;;;;;5002889;28;20480;-83
2023/09/26 01:00:31;;;;;;;6.53;4.53;;;9.80;99.90;;;;;;5003289;28;20025;-84
2023/09/26 01:02:57;;;;;;;4.68;4.03;;;9.80;99.90;;;;;;5010993;28;20021;-83
2023/09/26 01:05:23;;;;;;;5.07;4.57;;;9.80;99.90;;;;;;5021512;28;20105;-83
2023/09/26 01:07:49;;;;;;;4.47;4.07;;;9.80;99.90;;;;;;5020303;28;20133;-83
2023/09/26 01:10:15;;;;;;;4.05;3.75;;;9.80;99.90;;;;;;5016742;28;20034;-83
2023/09/26 01:12:41;;;;;;;4.63;4.22;;;9.80;99.90;;;;;;5026661;28;20007;-84
2023/09/26 01:15:08;;;;;;;4.30;3.90;;;9.90;99.90;;;;;;5030015;28;20030;-83
2023/09/26 01:17:34;;;;;;;5.05;4.35;;;9.90;99.90;;;;;;5017395;28;20025;-83
2023/09/26 01:19:59;;;;;;;4.32;3.92;;;9.90;99.90;;;;;;5013742;28;20030;-83
2023/09/26 01:22:27;;;;;;;4.13;3.72;;;9.80;99.90;;;;;;5015691;28;20025;-83
2023/09/26 01:24:53;;;;;;;6.10;4.60;;;9.80;99.90;;;;;;5021638;28;20034;-82
2023/09/26 01:27:19;;;;;;;5.68;4.55;;;9.80;99.90;;;;;;5018792;28;20034;-81
2023/09/26 01:29:47;;;;;;;4.50;4.05;;;9.80;99.90;;;;;;5010809;28;20090;-83
2023/09/26 01:32:13;;;;;;;5.78;4.30;;;9.70;99.90;;;;;;5006832;28;20037;-83
2023/09/26 01:34:38;;;;;;;4.38;4.07;;;9.80;99.90;;;;;;5010302;28;20029;-83
2023/09/26 01:37:05;;;;;;;4.00;3.60;;;9.70;99.90;;;;;;5005522;28;20489;-82
2023/09/26 01:39:30;;;;;;;4.32;3.92;;;9.70;99.90;;;;;;5005934;28;20335;-83
2023/09/26 01:41:56;;;;;;;3.83;3.38;;;9.60;99.90;;;;;;5012092;28;20033;-83
2023/09/26 01:44:22;;;;;;;7.07;4.18;;;9.60;99.90;;;;;;5006093;28;20033;-83
2023/09/26 01:46:47;;;;;;;4.15;3.85;;;9.60;99.90;;;;;;5012252;28;20030;-82
2023/09/26 01:49:13;;;;;;;5.68;4.00;;;9.60;99.90;;;;;;5009297;28;20030;-83
2023/09/26 01:51:38;;;;;;;4.35;3.95;;;9.60;99.90;;;;;;5021723;28;20125;-82
2023/09/26 01:54:04;;;;;;;4.40;4.00;;;9.60;99.90;;;;;;5006730;28;20066;-83
2023/09/26 01:56:33;;;;;;;4.35;3.88;;;9.50;99.90;;;;;;5010844;28;20013;-82
2023/09/26 01:58:59;;;;;;;4.55;4.15;;;9.50;99.90;;;;;;5015665;28;20492;-83
2023/09/26 02:01:25;;;;;;;4.65;4.10;;;9.50;99.90;;;;;;5001584;28;20076;-82
2023/09/26 02:03:51;;;;;;;4.55;4.13;;;9.40;99.90;;;;;;5004757;28;20022;-82
2023/09/26 02:06:16;;;;;;;4.97;4.13;;;9.40;99.90;;;;;;4996344;28;20422;-82
2023/09/26 02:08:42;;;;;;;5.00;4.38;;;9.40;99.90;;;;;;4992542;28;20037;-82
2023/09/26 02:11:07;;;;;;;7.78;4.57;;;9.40;99.90;;;;;;5007352;28;21806;-82
2023/09/26 02:13:33;;;;;;;4.50;4.05;;;9.40;99.90;;;;;;5002292;28;20030;-81
2023/09/26 02:15:58;;;;;;;4.25;3.88;;;9.50;99.90;;;;;;5007577;28;20474;-82
2023/09/26 02:18:24;;;;;;;4.50;4.10;;;9.40;99.90;;;;;;5010822;28;20018;-82
2023/09/26 02:20:50;;;;;;;4.32;3.97;;;9.40;99.90;;;;;;5009460;28;20018;-82
2023/09/26 02:23:16;;;;;;;5.30;4.03;;;9.40;99.90;;;;;;5010073;28;20157;-81
2023/09/26 02:25:49;;;;;;;5.32;4.50;;;9.40;99.90;;;;;;5009887;28;20024;-83
2023/09/26 02:28:14;;;;;;;4.65;4.22;;;9.40;99.90;;;;;;4998035;28;20792;-82
2023/09/26 02:30:41;;;;;;;4.97;4.32;;;9.50;99.90;;;;;;5000688;28;20026;-82
2023/09/26 02:33:07;;;;;;;4.35;4.05;;;9.50;99.90;;;;;;5005698;28;20022;-82
2023/09/26 02:35:32;;;;;;;4.75;4.05;;;9.50;99.90;;;;;;5014689;28;20041;-82
2023/09/26 02:37:58;;;;;;;5.03;4.60;;;9.50;99.90;;;;;;5004426;28;20026;-82
2023/09/26 02:40:23;;;;;;;5.60;4.85;;;9.50;99.90;;;;;;4997175;28;20396;-82
2023/09/26 02:42:50;;;;;;;5.30;4.80;;;9.50;99.90;;;;;;5012650;28;20029;-83
2023/09/26 02:45:15;;;;;;;4.53;4.13;;;9.50;99.90;;;;;;5012098;28;20037;-82
2023/09/26 02:47:44;;;;;;;6.22;4.88;;;9.50;99.90;;;;;;5004005;28;20469;-82
2023/09/26 02:50:10;;;;;;;4.80;4.32;;;9.40;99.90;;;;;;5011193;28;20541;-82
2023/09/26 02:52:37;;;;;;;4.82;4.40;;;9.40;99.90;;;;;;5004400;28;20402;-82
2023/09/26 02:55:03;;;;;;;4.35;3.95;;;9.40;99.90;;;;;;5009896;28;20079;-84
2023/09/26 02:57:28;;;;;;;4.53;4.13;;;9.40;99.90;;;;;;5004634;28;20675;-83
2023/09/26 02:59:54;;;;;;;4.38;3.72;;;9.40;99.90;;;;;;5000315;28;20565;-83
2023/09/26 03:02:19;;;;;;;4.75;4.28;;;9.40;99.90;;;;;;5004344;28;20129;-82
2023/09/26 03:04:48;;;;;;;4.93;4.43;;;9.40;99.90;;;;;;5007656;28;20034;-82
2023/09/26 03:07:15;;;;;;;6.05;3.90;;;9.30;99.90;;;;;;5004122;28;20113;-82
2023/09/26 03:09:40;;;;;;;6.20;4.85;;;9.30;99.90;;;;;;5006507;28;20537;-83
2023/09/26 03:12:06;;;;;;;4.90;4.43;;;9.30;99.90;;;;;;5005350;28;20026;-81
2023/09/26 03:14:32;;;;;;;7.50;5.25;;;9.30;99.90;;;;;;5003725;28;20037;-82
2023/09/26 03:16:57;;;;;;;5.38;4.82;;;9.20;99.90;;;;;;5002333;28;20026;-82
2023/09/26 03:19:23;;;;;;;4.70;4.20;;;9.20;99.90;;;;;;5005596;28;20426;-82
2023/09/26 03:21:50;;;;;;;4.78;4.28;;;9.20;99.90;;;;;;5002517;28;20022;-83
2023/09/26 03:24:16;;;;;;;5.65;5.05;;;9.20;99.90;;;;;;5006676;28;20525;-81
2023/09/26 03:26:42;;;;;;;5.35;4.80;;;9.10;99.90;;;;;;5004429;28;20026;-83
2023/09/26 03:29:07;;;;;;;3.97;3.58;;;9.10;99.90;;;;;;5007628;28;20033;-83
2023/09/26 03:31:34;;;;;;;4.63;4.22;;;9.10;99.90;;;;;;5008222;28;20030;-82
2023/09/26 03:34:00;;;;;;;5.57;4.82;;;9.10;99.90;;;;;;5005543;28;20030;-83
2023/09/26 03:36:25;;;;;;;4.68;4.28;;;9.10;99.90;;;;;;5000754;28;20034;-82
2023/09/26 03:38:51;;;;;;;5.03;4.60;;;9.10;99.90;;;;;;5004067;28;20225;-83
2023/09/26 03:41:16;;;;;;;6.10;5.10;;;9.10;99.90;;;;;;5008417;28;20030;-82
2023/09/26 03:43:42;;;;;;;5.85;5.20;;;9.10;99.90;;;;;;5007788;28;20076;-83
2023/09/26 03:46:08;;;;;;;5.45;4.53;;;9.10;99.90;;;;;;5007963;28;20033;-83
2023/09/26 03:48:35;;;;;;;4.95;4.55;;;9.10;99.90;;;;;;5003253;28;20029;-81
2023/09/26 03:51:12;;;;;;;5.85;4.85;;;9.10;99.90;;;;;;5010477;28;20075;-82
2023/09/26 03:53:37;;;;;;;;;;;9.10;99.90;;;;;;5004210;28;20100;-83
2023/09/26 03:56:04;;;;;;;4.87;4.37;;;9.00;99.90;;;;;;5008204;28;19910;-83
2023/09/26 03:58:30;;;;;;;5.70;4.65;;;9.00;99.90;;;;;;4997508;28;20300;-82
2023/09/26 04:00:56;;;;;;;5.70;4.30;;;9.00;99.90;;;;;;5008961;28;20833;-81
2023/09/26 04:03:22;;;;;;;4.75;4.35;;;9.00;99.90;;;;;;5001194;28;20109;-83
2023/09/26 04:05:56;;;;;;;6.53;5.30;;;9.00;99.90;;;;;;5010462;28;20022;-83
2023/09/26 04:08:21;;;;;;;5.22;4.72;;;9.00;99.90;;;;;;5005647;28;20032;-83
2023/09/26 04:10:47;;;;;;;5.13;4.70;;;9.00;99.90;;;;;;5009479;28;20113;-81
2023/09/26 04:13:12;;;;;;;6.10;4.60;;;8.90;99.90;;;;;;5003323;28;20427;-83
2023/09/26 04:15:38;;;;;;;7.07;5.03;;;8.90;99.90;;;;;;5002167;28;20084;-83
2023/09/26 04:18:05;;;;;;;5.72;4.82;;;9.00;99.90;;;;;;5021305;28;20027;-84
2023/09/26 04:20:30;;;;;;;5.57;4.97;;;9.00;99.90;;;;;;5023422;28;19997;-83
2023/09/26 04:22:56;;;;;;;6.20;4.97;;;9.00;99.90;;;;;;5030467;28;20090;-84
2023/09/26 04:25:21;;;;;;;5.53;4.63;;;9.00;99.90;;;;;;5022587;28;20022;-84
2023/09/26 04:27:47;;;;;;;5.80;5.15;;;9.00;99.90;;;;;;5022736;28;20041;-84
2023/09/26 04:30:13;;;;;;;5.63;5.05;;;9.00;99.90;;;;;;5009843;28;20491;-83
2023/09/26 04:32:38;;;;;;;6.45;5.05;;;9.00;99.90;;;;;;5004315;28;20018;-84
2023/09/26 04:35:04;;;;;;;5.45;4.70;;;9.00;99.90;;;;;;5013049;28;20512;-84
2023/09/26 04:37:30;;;;;;;5.50;4.80;;;9.00;99.90;;;;;;5003005;28;20035;-84
2023/09/26 04:39:55;;;;;;;5.47;4.90;;;9.00;99.90;;;;;;5007809;28;20030;-84
2023/09/26 04:42:21;;;;;;;6.43;4.95;;;9.00;99.90;;;;;;5013648;28;20034;-83
2023/09/26 04:44:46;;;;;;;7.38;5.55;;;9.00;99.90;;;;;;5004715;28;20027;-83
2023/09/26 04:47:12;;;;;;;5.00;4.45;;;8.90;99.90;;;;;;5007339;28;20038;-82
2023/09/26 04:49:39;;;;;;;5.90;4.72;;;8.90;99.90;;;;;;5003484;28;20246;-85
2023/09/26 04:52:04;;;;;;;7.45;5.10;;;8.90;99.90;;;;;;5012433;28;20108;-84
2023/09/26 04:54:30;;;;;;;5.43;4.88;;;8.90;99.90;;;;;;5007540;28;20054;-83
2023/09/26 04:56:56;;;;;;;6.40;5.53;;;8.80;99.90;;;;;;5004594;28;20499;-84
2023/09/26 04:59:21;;;;;;;5.15;4.72;;;8.80;99.90;;;;;;5004522;28;20430;-83
2023/09/26 05:01:48;;;;;;;6.03;5.30;;;8.80;99.90;;;;;;4998124;28;20061;-84
2023/09/26 05:04:15;;;;;;;6.55;5.95;;;8.80;99.90;;;;;;5005297;28;20197;-83
2023/09/26 05:06:41;;;;;;;6.03;4.95;;;8.70;99.90;;;;;;5002723;28;20181;-84
2023/09/26 05:09:07;;;;;;;7.43;5.60;;;8.80;99.90;;;;;;5006549;28;20128;-84
2023/09/26 05:11:32;;;;;;;6.38;5.03;;;8.80;99.90;;;;;;4999459;28;20104;-83
2023/09/26 05:13:59;;;;;;;7.15;5.40;;;8.80;99.90;;;;;;5010666;28;20025;-83
2023/09/26 05:16:25;;;;;;;5.40;4.90;;;8.80;99.90;;;;;;5005025;28;20048;-83
2023/09/26 05:18:51;;;;;;;6.68;5.85;;;8.80;99.90;;;;;;4999080;28;20394;-83
2023/09/26 05:21:16;;;;;;;4.82;4.43;;;8.70;99.90;;;;;;5008339;28;20742;-82
2023/09/26 05:23:42;;;;;;;6.55;5.90;;;8.70;99.90;;;;;;5000523;28;20475;-82
2023/09/26 05:26:08;;;;;;;6.07;5.47;;;8.80;99.90;;;;;;5004821;28;20026;-83
2023/09/26 05:28:34;;;;;;;6.90;5.90;;;8.70;99.90;;;;;;5009576;28;20172;-84
2023/09/26 05:31:00;;;;;;;6.22;5.38;;;8.70;99.90;;;;;;5011700;28;20476;-84
2023/09/26 05:33:26;;;;;;;6.40;5.57;;;8.80;99.90;;;;;;5009976;28;20026;-83
2023/09/26 05:35:53;;;;;;;6.00;5.00;;;8.80;99.90;;;;;;5006407;28;20049;-84
2023/09/26 05:38:19;;;;;;;7.88;4.88;;;8.80;99.90;;;;;;5005936;28;20019;-84
2023/09/26 05:40:45;;;;;;;5.65;4.53;;;8.80;99.90;;;;;;5009796;28;20038;-84
2023/09/26 05:43:11;;;;;;;6.60;5.35;;;8.80;99.90;;;;;;5004096;28;20645;-83
2023/09/26 05:45:37;;;;;;;5.38;4.72;;;8.90;99.90;;;;;;5012686;28;20022;-83
2023/09/26 05:48:04;;;;;;;4.90;4.45;;;8.90;99.90;;;;;;5009459;28;20117;-84
2023/09/26 05:50:30;;;;;;;6.20;5.55;;;8.90;99.90;;;;;;5008727;28;20018;-83
2023/09/26 05:52:55;;;;;;;6.22;5.28;;;9.00;99.90;;;;;;5005034;28;20018;-84
2023/09/26 05:55:21;;;;;;;5.88;5.05;;;9.00;99.90;;;;;;5005850;28;20540;-82
2023/09/26 05:57:46;;;;;;;7.05;5.85;;;9.00;99.90;;;;;;5008905;28;20057;-84
2023/09/26 06:00:12;;;;;;;6.40;5.00;;;9.00;99.90;;;;;;5011154;28;20018;-83
2023/09/26 06:02:38;;;;;;;7.00;5.80;;;9.10;99.90;;;;;;5010782;28;20031;-83
2023/09/26 06:05:04;;;;;;;6.20;5.60;;;9.10;99.90;;;;;;4999220;28;20664;-83
2023/09/26 06:07:30;;;;;;;5.95;5.22;;;9.20;99.90;;;;;;5005574;28;20022;-83
2023/09/26 06:09:56;;;;;;;6.80;6.10;;;9.20;99.90;;;;;;4999951;28;20026;-83
2023/09/26 06:12:21;;;;;;;6.60;5.90;;;9.30;99.90;;;;;;4995500;28;20033;-84
2023/09/26 06:14:47;;;;;;;7.97;6.30;;;9.40;99.90;;;;;;5005312;28;20022;-82
2023/09/26 06:17:13;;;;;;;7.03;5.80;;;9.40;99.90;;;;;;5015187;28;20025;-85
2023/09/26 06:19:39;;;;;;;6.90;6.20;;;9.50;99.90;;;;;;5000706;28;20038;-83
2023/09/26 06:22:05;;;;;;;6.95;5.72;;;9.60;99.90;;;;;;5004760;28;20021;-83
2023/09/26 06:24:31;;;;;;;6.38;5.78;;;9.60;99.90;;;;;;5012395;28;20026;-83
2023/09/26 06:26:56;;;;;;;8.00;6.30;;;9.70;99.90;;;;;;5013157;28;20056;-83
2023/09/26 06:29:22;;;;;;;6.43;5.82;;;9.80;99.90;;;;;;5008515;28;20029;-86
2023/09/26 06:31:48;;;;;;;7.10;6.40;;;9.90;99.90;;;;;;5016188;28;20018;-84
2023/09/26 06:34:13;;;;;;;7.20;6.57;;;10.00;99.90;;;;;;5013640;28;20060;-83
2023/09/26 06:36:39;;;;;;;6.78;5.53;;;10.10;99.90;;;;;;5008888;28;20528;-85
2023/09/26 06:39:04;;;;;;;6.50;5.90;;;10.10;99.90;;;;;;5012641;28;20031;-83
2023/09/26 06:41:30;;;;;;;8.13;6.25;;;10.20;99.90;;;;;;5016229;28;20040;-83
2023/09/26 06:43:56;;;;;;;6.75;6.05;;;10.30;99.90;;;;;;5012409;28;20034;-83
2023/09/26 06:46:21;;;;;;;6.97;5.80;;;10.30;99.90;;;;;;5013964;28;20064;-83
2023/09/26 06:48:47;;;;;;;6.68;6.07;;;10.40;99.90;;;;;;5006965;28;20113;-84
2023/09/26 06:51:13;;;;;;;7.30;6.30;;;10.40;99.90;;;;;;5014874;28;20144;-84
2023/09/26 06:53:38;;;;;;;8.35;6.78;;;10.50;99.90;;;;;;5013168;28;20040;-83
2023/09/26 06:56:06;;;;;;;7.80;7.07;;;10.60;99.90;;;;;;5017146;28;20062;-84
2023/09/26 06:58:32;;;;;;;7.55;6.57;;;10.70;99.90;;;;;;5005221;28;20018;-84
2023/09/26 07:00:58;;;;;;;7.60;6.00;;;10.80;99.90;;;;;;5012239;28;20108;-83
2023/09/26 07:03:27;;;;;;;6.55;5.85;;;10.90;99.90;;;;;;5009841;28;20102;-83
2023/09/26 07:05:53;;;;;;;9.38;6.38;;;11.00;99.90;;;;;;5015864;28;20017;-83
2023/09/26 07:08:18;;;;;;;6.82;5.93;;;11.10;99.90;;;;;;5022472;28;20655;-84
2023/09/26 07:10:44;;;;;;;7.07;6.38;;;11.20;99.90;;;;;;5028343;28;20021;-84
2023/09/26 07:13:09;;;;;;;5.72;5.18;;;11.30;99.90;;;;;;5020838;28;20010;-84
2023/09/26 07:15:35;;;;;;;6.53;5.93;;;11.50;99.90;;;;;;5024781;28;20030;-84
2023/09/26 07:18:05;;;;;;;8.00;6.22;;;11.60;99.90;;;;;;5022191;28;20087;-84
2023/09/26 07:20:30;;;;;;;6.05;5.45;;;11.60;99.90;;;;;;5020721;28;20481;-84
2023/09/26 07:22:56;;;;;;;6.88;5.55;;;11.70;99.90;;;;;;5021736;28;20064;-84
2023/09/26 07:25:21;;;;;;;5.60;5.05;;;11.80;99.90;;;;;;5018864;28;20563;-84
2023/09/26 07:27:47;;;;;;;5.45;4.95;;;11.90;99.90;;;;;;5019924;28;20034;-84
2023/09/26 07:30:13;;;;;;;4.82;4.43;;;12.00;99.90;;;;;;5006548;28;20025;-84
2023/09/26 07:32:39;;;;;;;8.88;4.85;;;12.10;99.90;;;;;;5027099;28;20030;-85
2023/09/26 07:35:05;;;;;;;4.80;4.38;;;12.30;99.90;;;;;;5034679;28;20014;-85
2023/09/26 07:37:31;;;;;;;4.97;4.03;;;12.40;99.90;;;;;;5027693;28;20639;-84
2023/09/26 07:39:57;;;;;;;6.20;4.10;;;12.40;99.90;;;;;;5028522;28;20038;-84
2023/09/26 07:42:22;;;;;;;5.25;3.95;;;12.50;99.90;;;;;;5019377;28;20041;-85
2023/09/26 07:44:48;;;;;;;4.80;4.15;;;12.70;99.90;;;;;;5027671;28;20481;-84
2023/09/26 07:47:13;;;;;;;4.38;3.70;;;12.70;99.90;;;;;;5009757;28;20037;-84
2023/09/26 07:49:42;;;;;;;4.40;3.90;;;12.80;99.90;;;;;;5020920;28;20045;-84
2023/09/26 07:52:07;;;;;;;4.60;4.20;;;12.80;99.90;;;;;;5019352;28;20026;-84
2023/09/26 07:54:33;;;;;;;5.00;4.35;;;12.90;99.90;;;;;;5017430;28;20022;-84
2023/09/26 07:56:58;;;;;;;4.78;4.03;;;13.00;99.90;;;;;;5024615;28;20033;-85
2023/09/26 07:59:24;;;;;;;4.30;3.80;;;13.10;99.90;;;;;;5020409;28;20022;-83
2023/09/26 08:01:50;;;;;;;4.10;3.70;;;13.20;99.90;;;;;;5010199;28;20046;-84
2023/09/26 08:04:16;;;;;;;4.40;4.05;;;13.40;99.90;;;;;;5016425;28;20084;-83
2023/09/26 08:06:42;;;;;;;4.60;3.72;;;13.50;99.90;;;;;;5026043;28;20034;-84
2023/09/26 08:09:08;;;;;;;5.38;4.15;;;13.60;99.90;;;;;;5026303;28;20046;-83
2023/09/26 08:11:33;;;;;;;4.68;3.92;;;13.80;99.90;;;;;;5020467;28;20081;-84
2023/09/26 08:13:59;;;;;;;4.38;3.97;;;13.90;99.90;;;;;;5019802;28;20033;-84
2023/09/26 08:16:24;;;;;;;6.63;3.90;;;14.10;99.90;;;;;;5017029;28;20052;-83
2023/09/26 08:18:50;;;;;;;4.70;4.30;;;14.20;99.90;;;;;;5026831;28;20021;-83
2023/09/26 08:21:16;;;;;;;5.75;3.45;;;14.30;99.90;;;;;;5027997;28;20128;-83
2023/09/26 08:23:42;;;;;;;4.68;3.85;;;14.40;99.90;;;;;;5005625;28;20569;-85
2023/09/26 08:26:11;;;;;;;4.80;3.83;;;14.40;99.90;;;;;;5021014;28;20029;-84
2023/09/26 08:28:37;;;;;;;4.47;3.80;;;14.50;99.90;;;;;;5025366;28;20018;-84
2023/09/26 08:31:05;;;;;;;3.83;3.42;;;14.50;99.90;;;;;;5020610;28;20022;-83
2023/09/26 08:33:31;;;;;;;6.55;3.80;;;14.60;99.90;;;;;;5009523;28;20025;-84
2023/09/26 08:35:56;;;;;;;5.55;3.80;;;14.60;99.90;;;;;;5021496;28;20013;-85
2023/09/26 08:38:22;;;;;;;3.90;3.60;;;14.70;99.90;;;;;;5020508;28;20014;-83
2023/09/26 08:40:51;;;;;;;6.32;3.67;;;14.80;99.90;;;;;;5015307;28;20046;-85
2023/09/26 08:43:22;;;;;;;4.40;3.67;;;14.80;99.90;;;;;;5024688;28;20018;-84
2023/09/26 08:45:48;;;;;;;4.20;3.22;;;14.80;99.90;;;;;;5020244;28;20485;-83
2023/09/26 08:48:15;;;;;;;3.67;3.20;;;14.80;99.90;;;;;;5016348;28;20036;-83
2023/09/26 08:50:40;;;;;;;5.20;4.10;;;14.90;99.90;;;;;;5011112;28;20018;-83
2023/09/26 08:53:06;;;;;;;3.45;3.15;;;14.90;99.90;;;;;;5010261;28;20501;-84
2023/09/26 08:55:33;;;;;;;5.18;4.43;;;15.00;99.90;;;;;;5023780;28;20014;-84
2023/09/26 08:57:59;;;;;;;4.28;3.88;;;15.00;99.90;;;;;;5013597;28;20088;-83
2023/09/26 09:00:26;;;;;;;4.45;3.90;;;15.10;99.90;;;;;;5014396;28;20021;-83
2023/09/26 09:02:52;;;;;;;4.53;4.05;;;15.10;99.90;;;;;;5021998;28;20022;-82
2023/09/26 09:05:19;;;;;;;5.63;4.40;;;15.20;99.90;;;;;;5022434;28;20018;-83
2023/09/26 09:07:45;;;;;;;5.00;3.95;;;15.20;99.90;;;;;;5022615;28;20075;-84
2023/09/26 09:10:12;;;;;;;5.18;4.25;;;15.30;99.90;;;;;;5011290;28;20169;-83
2023/09/26 09:12:40;;;;;;;5.00;3.63;;;15.30;99.90;;;;;;5015975;28;20021;-84
2023/09/26 09:15:28;;;;;;;4.55;3.33;;;15.40;99.90;;;;;;5006509;28;20026;-83
2023/09/26 09:17:54;;;;;;;3.60;3.20;;;15.50;99.90;;;;;;5010524;28;20033;-84
2023/09/26 09:20:33;;;;;;;4.18;3.03;;;15.50;99.90;;;;;;5016453;28;20030;-84
2023/09/26 09:23:03;;;;;;;3.28;3.00;;;15.50;99.90;;;;;;5022810;28;20588;-83
2023/09/26 09:25:39;;;;;;;6.72;3.05;;;15.50;99.90;;;;;;5002574;28;20414;-84
2023/09/26 09:28:09;;;;;;;4.35;2.97;;;15.50;99.90;;;;;;5015986;28;20029;-84
2023/09/26 09:30:43;;;;;;;3.20;2.90;;;15.60;99.90;;;;;;5015220;28;20026;-83
2023/09/26 09:33:09;;;;;;;4.30;3.38;;;15.60;99.90;;;;;;5020988;28;20077;-83
2023/09/26 09:35:38;;;;;;;5.68;3.28;;;15.60;99.90;;;;;;5014124;28;20025;-82
2023/09/26 09:38:04;;;;;;;3.80;3.10;;;15.70;99.90;;;;;;5011996;28;20083;-83
2023/09/26 09:40:31;;;;;;;3.38;2.92;;;15.70;99.90;;;;;;5019203;28;20037;-85
2023/09/26 09:42:57;;;;;;;3.25;2.95;;;15.90;99.90;;;;;;5023192;28;20021;-84
2023/09/26 09:45:25;;;;;;;3.58;3.25;;;15.90;99.90;;;;;;5020036;28;20109;-83
2023/09/26 09:47:55;;;;;;;4.25;3.55;;;16.00;99.90;;;;;;5006523;28;20095;-84
2023/09/26 09:50:21;;;;;;;4.13;3.20;;;16.00;99.90;;;;;;5025473;28;20022;-85
2023/09/26 09:52:51;;;;;;;5.45;3.05;;;16.10;99.90;;;;;;5026070;28;20100;-83
2023/09/26 09:55:21;;;;;;;6.63;2.97;;;16.20;99.90;;;;;;5017148;28;20026;-83
2023/09/26 09:57:52;;;;;;;4.80;3.17;;;16.30;99.90;;;;;;5017647;28;20029;-83
2023/09/26 10:00:19;;;;;;;6.60;3.30;;;16.40;99.90;;;;;;5013324;28;20025;-83
2023/09/26 10:02:46;;;;;;;4.65;3.40;;;16.50;99.90;;;;;;5017553;28;20026;-84
2023/09/26 10:05:14;;;;;;;5.88;3.00;;;16.70;99.90;;;;;;5003351;28;20101;-84
2023/09/26 10:07:41;;;;;;;3.10;2.80;;;16.80;99.90;;;;;;5020461;28;20053;-85
2023/09/26 10:10:09;;;;;;;3.45;3.15;;;16.90;99.90;;;;;;5019468;28;20552;-84
2023/09/26 10:12:40;;;;;;;2.83;2.58;;;17.00;99.90;;;;;;5011970;28;20022;-84
2023/09/26 10:15:13;;;;;;;2.75;2.55;;;17.10;99.90;;;;;;5010898;28;20131;-84
2023/09/26 10:17:48;;;;;;;2.85;2.63;;;17.10;99.90;;;;;;5007184;28;20577;-84
2023/09/26 10:20:15;;;;;;;2.58;2.38;;;17.20;99.90;;;;;;5015605;28;20030;-85
2023/09/26 10:22:43;;;;;;;4.15;2.60;;;17.10;99.90;;;;;;5007288;28;20336;-85
2023/09/26 10:25:16;;;;;;;4.50;2.33;;;17.20;99.90;;;;;;5011834;28;20053;-84
2023/09/26 10:27:46;;;;;;;3.17;2.67;;;17.20;99.90;;;;;;5013480;28;20470;-84
2023/09/26 10:30:14;;;;;;;3.10;2.80;;;17.20;99.90;;;;;;5018846;28;21961;-84
2023/09/26 10:32:41;;;;;;;3.75;2.58;;;17.30;99.90;;;;;;5013822;28;20029;-85
2023/09/26 10:35:13;;;;;;;3.40;3.03;;;17.40;99.90;;;;;;5022118;28;20554;-84
2023/09/26 10:37:45;;;;;;;3.22;2.92;;;17.50;99.90;;;;;;5025407;28;20359;-83
2023/09/26 10:40:14;;;;;;;3.70;2.85;;;17.60;99.90;;;;;;5019894;28;20527;-83
2023/09/26 10:42:45;;;;;;;5.43;3.13;;;17.80;99.90;;;;;;5016660;28;20029;-85
2023/09/26 10:45:12;;;;;;;3.78;3.47;;;17.90;99.90;;;;;;5037024;28;20021;-85
2023/09/26 10:47:40;;;;;;;3.28;2.75;;;18.10;99.90;;;;;;5023083;28;20025;-84
2023/09/26 10:50:15;;;;;;;5.18;3.00;;;18.10;99.90;;;;;;5010290;28;20088;-83
2023/09/26 10:52:46;;;;;;;6.40;2.60;;;18.20;99.90;;;;;;5011968;28;20153;-85
2023/09/26 10:55:17;;;;;;;3.17;2.85;;;18.30;99.90;;;;;;5018206;28;20290;-84
2023/09/26 10:57:44;;;;;;;4.40;2.50;;;18.40;99.90;;;;;;5021523;28;20041;-84
2023/09/26 11:00:11;;;;;;;3.40;2.67;;;18.50;99.90;;;;;;5016807;28;20144;-84
2023/09/26 11:02:37;;;;;;;2.95;2.63;;;18.60;99.90;;;;;;5016420;28;20057;-84
2023/09/26 11:05:08;;;;;;;2.95;2.75;;;18.60;99.90;;;;;;5013412;28;20117;-83
2023/09/26 11:07:35;;;;;;;2.95;2.63;;;18.70;99.90;;;;;;5016172;28;20013;-84
2023/09/26 11:10:00;;;;;;;2.70;2.40;;;18.80;99.90;;;;;;5011781;28;20076;-84
2023/09/26 11:12:26;;;;;;;3.72;2.47;;;18.80;99.90;;;;;;5013124;28;20859;-85
2023/09/26 11:14:54;;;;;;;4.75;2.40;;;18.90;99.90;;;;;;5034957;28;20031;-84
2023/09/26 11:17:20;;;;;;;2.72;2.40;;;18.80;99.90;;;;;;5021996;28;20104;-84
2023/09/26 11:19:46;;;;;;;2.50;2.30;;;18.90;99.90;;;;;;5027641;28;20021;-84
2023/09/26 11:22:12;;;;;;;2.63;2.42;;;18.90;99.90;;;;;;5023734;28;20022;-84
2023/09/26 11:24:37;;;;;;;4.55;2.20;;;18.90;99.90;;;;;;5024645;28;20026;-84
2023/09/26 11:27:04;;;;;;;2.90;2.60;;;18.80;99.90;;;;;;5014504;28;20073;-84
2023/09/26 11:29:31;;;;;;;3.53;2.83;;;18.80;99.90;;;;;;5020832;28;20025;-86
2023/09/26 11:31:57;;;;;;;2.55;2.35;;;18.80;99.90;;;;;;5014495;28;20033;-84
2023/09/26 11:34:24;;;;;;;4.20;2.63;;;18.90;99.90;;;;;;5009043;28;20345;-83
2023/09/26 11:36:50;;;;;;;3.70;2.50;;;18.90;99.90;;;;;;5021327;28;20014;-84
2023/09/26 11:39:21;;;;;;;2.70;2.10;;;19.00;99.90;;;;;;5021399;28;20496;-85
2023/09/26 11:41:47;;;;;;;2.88;2.38;;;19.10;99.90;;;;;;5020130;28;20044;-84
2023/09/26 11:44:15;;;;;;;2.05;1.90;;;19.20;99.90;;;;;;5012134;28;20033;-83
2023/09/26 11:46:46;;;;;;;3.65;2.35;;;19.30;99.90;;;;;;5017640;28;20061;-85
2023/09/26 11:49:13;;;;;;;2.45;2.05;;;19.30;99.90;;;;;;5018399;28;20040;-85
2023/09/26 11:51:40;;;;;;;4.18;2.47;;;19.40;99.90;;;;;;5018492;28;20094;-83
2023/09/26 11:54:06;;;;;;;3.20;2.10;;;19.50;99.90;;;;;;5010283;28;20025;-85
2023/09/26 11:56:35;;;;;;;3.70;2.45;;;19.50;99.90;;;;;;5012414;28;20010;-83
2023/09/26 11:59:04;;;;;;;2.53;2.15;;;19.60;99.90;;;;;;5016125;28;20022;-84
2023/09/26 12:01:30;;;;;;;5.75;2.70;;;19.70;99.90;;;;;;5009610;28;20097;-85
2023/09/26 12:03:56;;;;;;;4.05;2.03;;;19.80;99.90;;;;;;5017798;28;20056;-85
2023/09/26 12:06:22;;;;;;;2.60;2.33;;;19.80;99.90;;;;;;5006100;28;20030;-83
2023/09/26 12:08:47;;;;;;;2.88;2.25;;;19.80;99.90;;;;;;5011193;28;20122;-85
2023/09/26 12:11:14;;;;;;;2.30;2.10;;;19.90;99.90;;;;;;5012945;28;20015;-83
2023/09/26 12:13:39;;;;;;;2.33;2.13;;;19.90;99.90;;;;;;5007004;28;20030;-84
2023/09/26 12:16:05;;;;;;;2.58;2.30;;;19.90;99.90;;;;;;5006164;28;20056;-84
2023/09/26 12:18:31;;;;;;;2.35;2.15;;;20.00;99.90;;;;;;5010915;28;20421;-84
2023/09/26 12:20:58;;;;;;;2.67;2.47;;;20.00;99.90;;;;;;5018322;28;20497;-87
2023/09/26 12:23:24;;;;;;;6.07;2.40;;;20.10;99.90;;;;;;5012483;28;20106;-85
2023/09/26 12:25:50;;;;;;;5.30;2.25;;;20.10;99.90;;;;;;5015628;28;20061;-84
2023/09/26 12:28:21;;;;;;;2.15;1.98;;;20.10;99.90;;;;;;5008821;28;20327;-84
2023/09/26 12:30:47;;;;;;;3.97;2.28;;;20.10;99.90;;;;;;5014350;28;20026;-83
2023/09/26 12:33:12;;;;;;;1.88;1.75;;;20.20;99.90;;;;;;5003133;28;20121;-84
2023/09/26 12:35:38;;;;;;;3.00;2.03;;;20.20;99.90;;;;;;5012698;28;20445;-84
2023/09/26 12:38:04;;;;;;;3.83;1.92;;;20.20;99.90;;;;;;5021120;28;20030;-83
2023/09/26 12:40:29;;;;;;;3.67;2.00;;;20.20;99.90;;;;;;5009944;28;20062;-85
2023/09/26 12:42:55;;;;;;;1.95;1.52;;;20.30;99.90;;;;;;5009872;28;20726;-83
2023/09/26 12:45:20;;;;;;;2.22;2.03;;;20.20;99.90;;;;;;5010981;28;20029;-83
2023/09/26 12:47:46;;;;;;;1.95;1.70;;;20.20;99.90;;;;;;5009971;28;20040;-83
2023/09/26 12:50:13;;;;;;;2.88;2.00;;;20.20;99.90;;;;;;5003548;28;20022;-85